createdAt,value
2023-04-20T00:02:08.969Z,100298.41
2023-04-20T00:04:39.024Z,100308.81
2023-04-20T00:07:11.002Z,100310.03
2023-04-20T00:09:40.742Z,100312.19
2023-04-20T00:12:12.965Z,100310.50
2023-04-20T00:14:44.061Z,100310.06
2023-04-20T00:17:14.224Z,100313.09
2023-04-20T00:19:48.701Z,100319.91
2023-04-20T00:22:21.004Z,100320.59
2023-04-20T00:24:51.028Z,100335.44
2023-04-20T00:27:20.406Z,100340.19
2023-04-20T00:29:52.633Z,100340.69
2023-04-20T00:32:22.970Z,100338.44
2023-04-20T00:34:52.091Z,100338.94
2023-04-20T00:37:22.095Z,100339.50
2023-04-20T00:39:51.610Z,100343.84
2023-04-20T00:42:20.614Z,100342.94
2023-04-20T00:44:51.383Z,100344.22
2023-04-20T00:47:20.548Z,100352.31
2023-04-20T00:49:50.668Z,100359.44
2023-04-20T00:52:22.041Z,100359.59
2023-04-20T00:54:52.474Z,100354.38
2023-04-20T00:57:26.285Z,100351.91
2023-04-20T00:59:56.287Z,100363.00
2023-04-20T01:02:26.595Z,100354.31
2023-04-20T01:04:57.401Z,100358.44
2023-04-20T01:07:34.166Z,100359.06
2023-04-20T01:10:04.910Z,100364.72
2023-04-20T01:12:36.336Z,100367.16
2023-04-20T01:15:08.899Z,100369.03
2023-04-20T01:17:42.550Z,100376.63
2023-04-20T01:20:16.067Z,100377.19
2023-04-20T01:22:51.946Z,100370.09
2023-04-20T01:25:21.312Z,100365.53
2023-04-20T01:27:50.510Z,100380.03
2023-04-20T01:30:19.972Z,100390.81
2023-04-20T01:32:49.142Z,100392.38
2023-04-20T01:35:18.601Z,100390.69
2023-04-20T01:37:48.790Z,100394.25
2023-04-20T01:40:18.835Z,100406.34
2023-04-20T01:42:50.182Z,100400.03
2023-04-20T01:45:20.297Z,100398.38
2023-04-20T01:47:50.509Z,100393.72
2023-04-20T01:50:22.241Z,100403.59
2023-04-20T01:52:55.337Z,100409.34
2023-04-20T01:55:25.035Z,100417.22
2023-04-20T01:57:58.333Z,100411.25
2023-04-20T02:00:30.275Z,100417.63
2023-04-20T02:03:03.344Z,100417.28
2023-04-20T02:05:33.909Z,100423.72
2023-04-20T02:08:03.434Z,100425.81
2023-04-20T02:10:35.101Z,100423.81
2023-04-20T02:13:04.477Z,100424.75
2023-04-20T02:15:34.322Z,100423.13
2023-04-20T02:18:04.228Z,100426.03
2023-04-20T02:20:34.497Z,100422.50
2023-04-20T02:23:03.926Z,100435.97
2023-04-20T02:25:34.556Z,100434.16
2023-04-20T02:28:04.125Z,100435.63
2023-04-20T02:30:34.456Z,100441.25
2023-04-20T02:33:04.697Z,100431.13
2023-04-20T02:35:35.225Z,100432.19
2023-04-20T02:38:06.044Z,100430.75
2023-04-20T02:40:35.538Z,100433.41
2023-04-20T02:43:07.631Z,100434.69
2023-04-20T02:45:39.803Z,100436.16
2023-04-20T02:48:10.154Z,100448.75
2023-04-20T02:50:45.195Z,100446.06
2023-04-20T02:53:22.598Z,100445.84
2023-04-20T02:56:15.630Z,100453.09
2023-04-20T02:58:49.259Z,100452.28
2023-04-20T03:01:24.457Z,100449.38
2023-04-20T03:04:04.139Z,100457.06
2023-04-20T03:06:38.998Z,100455.69
2023-04-20T03:09:11.294Z,100457.66
2023-04-20T03:12:05.936Z,100455.22
2023-04-20T03:15:08.762Z,100463.91
2023-04-20T03:18:01.183Z,100465.38
2023-04-20T03:20:34.709Z,100472.00
2023-04-20T03:23:04.251Z,100470.72
2023-04-20T03:25:34.757Z,100474.69
2023-04-20T03:28:15.330Z,100475.25
2023-04-20T03:30:45.088Z,100470.91
2023-04-20T03:33:20.572Z,100473.78
2023-04-20T03:35:50.183Z,100478.13
2023-04-20T03:38:20.186Z,100469.88
2023-04-20T03:40:50.504Z,100476.06
2023-04-20T03:43:20.723Z,100477.28
2023-04-20T03:45:51.487Z,100482.19
2023-04-20T03:48:23.532Z,100479.28
2023-04-20T03:50:54.969Z,100484.63
2023-04-20T03:53:24.185Z,100471.56
2023-04-20T03:55:54.663Z,100468.50
2023-04-20T03:58:26.616Z,100483.16
2023-04-20T04:01:14.083Z,100478.63
2023-04-20T04:03:48.340Z,100479.19
2023-04-20T04:06:19.353Z,100489.16
2023-04-20T04:08:52.406Z,100484.97
2023-04-20T04:11:23.267Z,100489.13
2023-04-20T04:13:54.832Z,100503.94
2023-04-20T04:16:32.672Z,100496.06
2023-04-20T04:19:04.524Z,100499.13
2023-04-20T04:21:36.503Z,100510.25
2023-04-20T04:24:08.122Z,100507.81
2023-04-20T04:26:47.441Z,100520.97
2023-04-20T04:29:16.887Z,100530.78
2023-04-20T04:31:46.617Z,100527.44
2023-04-20T04:34:19.816Z,100530.31
2023-04-20T04:37:50.064Z,100525.78
2023-04-20T04:40:47.439Z,100534.75
2023-04-20T04:43:16.704Z,100532.53
2023-04-20T04:45:54.379Z,100527.50
2023-04-20T04:48:24.512Z,100528.50
2023-04-20T04:50:54.375Z,100516.53
2023-04-20T04:53:23.564Z,100530.75
2023-04-20T04:55:52.139Z,100535.69
2023-04-20T04:58:22.345Z,100524.28
2023-04-20T05:00:52.552Z,100521.41
2023-04-20T05:03:22.494Z,100527.38
2023-04-20T05:05:52.080Z,100523.81
2023-04-20T05:08:22.666Z,100526.19
2023-04-20T05:10:52.254Z,100517.03
2023-04-20T05:13:22.613Z,100519.91
2023-04-20T05:15:51.723Z,100519.47
2023-04-20T05:18:22.642Z,100520.06
2023-04-20T05:20:54.297Z,100528.16
2023-04-20T05:23:24.958Z,100522.75
2023-04-20T05:25:55.177Z,100527.88
2023-04-20T05:28:24.203Z,100523.72
2023-04-20T05:30:55.865Z,100523.31
2023-04-20T05:33:26.913Z,100527.19
2023-04-20T05:36:03.266Z,100530.44
2023-04-20T05:38:32.567Z,100526.19
2023-04-20T05:41:02.710Z,100522.22
2023-04-20T05:43:36.516Z,100527.69
2023-04-20T05:46:07.973Z,100528.81
2023-04-20T05:48:38.885Z,100520.31
2023-04-20T05:51:09.586Z,100523.84
2023-04-20T05:53:39.858Z,100521.13
2023-04-20T05:56:09.951Z,100518.13
2023-04-20T05:58:40.208Z,100504.63
2023-04-20T06:01:10.391Z,100511.47
2023-04-20T06:03:42.079Z,100503.72
2023-04-20T06:06:11.379Z,100489.00
2023-04-20T06:08:41.003Z,100497.19
2023-04-20T06:11:10.271Z,100497.75
2023-04-20T06:13:40.556Z,100485.72
2023-04-20T06:16:11.425Z,100495.72
2023-04-20T06:18:42.448Z,100489.38
2023-04-20T06:21:12.215Z,100480.78
2023-04-20T06:23:42.595Z,100471.63
2023-04-20T06:26:12.005Z,100479.25
2023-04-20T06:28:41.963Z,100485.06
2023-04-20T06:31:11.182Z,100481.19
2023-04-20T06:33:42.327Z,100473.78
2023-04-20T06:36:11.590Z,100471.66
2023-04-20T06:38:42.097Z,100472.91
2023-04-20T06:41:11.636Z,100463.38
2023-04-20T06:43:43.120Z,100465.53
2023-04-20T06:46:12.141Z,100465.28
2023-04-20T06:48:42.090Z,100456.78
2023-04-20T06:51:11.616Z,100455.09
2023-04-20T06:53:42.734Z,100458.47
2023-04-20T06:56:12.675Z,100468.19
2023-04-20T06:58:42.524Z,100466.31
2023-04-20T07:01:12.401Z,100465.09
2023-04-20T07:03:42.900Z,100474.00
2023-04-20T07:06:12.267Z,100471.31
2023-04-20T07:08:42.674Z,100463.44
2023-04-20T07:11:14.846Z,100465.06
2023-04-20T07:13:43.976Z,100462.56
2023-04-20T07:16:16.136Z,100459.88
2023-04-20T07:18:45.197Z,100448.16
2023-04-20T07:21:19.844Z,100439.47
2023-04-20T07:23:50.604Z,100440.75
2023-04-20T07:26:20.633Z,100422.97
2023-04-20T07:28:51.892Z,100425.03
2023-04-20T07:31:20.521Z,100422.31
2023-04-20T07:33:50.199Z,100422.25
2023-04-20T07:36:23.518Z,100427.97
2023-04-20T07:38:52.529Z,100432.72
2023-04-20T07:41:23.681Z,100421.00
2023-04-20T07:43:52.522Z,100426.38
2023-04-20T07:46:23.819Z,100431.50
2023-04-20T07:48:54.086Z,100432.72
2023-04-20T07:51:23.443Z,100437.25
2023-04-20T07:53:52.476Z,100451.25
2023-04-20T07:56:22.372Z,100445.81
2023-04-20T07:59:02.697Z,100442.66
2023-04-20T08:01:32.168Z,100444.63
2023-04-20T08:04:03.006Z,100439.13
2023-04-20T08:06:34.209Z,100445.25
2023-04-20T08:09:04.433Z,100448.22
2023-04-20T08:11:35.102Z,100442.84
2023-04-20T08:14:04.789Z,100447.16
2023-04-20T08:16:34.868Z,100444.78
2023-04-20T08:19:11.561Z,100441.09
2023-04-20T08:21:52.414Z,100435.41
2023-04-20T08:24:23.062Z,100442.13
2023-04-20T08:26:52.372Z,100443.38
2023-04-20T08:29:21.132Z,100450.25
2023-04-20T08:31:51.975Z,100444.25
2023-04-20T08:34:22.331Z,100450.63
2023-04-20T08:36:52.487Z,100443.53
2023-04-20T08:39:24.602Z,100430.16
2023-04-20T08:41:56.330Z,100433.44
2023-04-20T08:44:30.826Z,100441.03
2023-04-20T08:47:04.069Z,100450.84
2023-04-20T08:49:34.481Z,100442.06
2023-04-20T08:52:03.779Z,100444.28
2023-04-20T08:54:33.850Z,100443.66
2023-04-20T08:57:06.751Z,100441.03
2023-04-20T08:59:39.305Z,100444.09
2023-04-20T09:02:16.073Z,100447.47
2023-04-20T09:04:44.991Z,100447.13
2023-04-20T09:07:24.273Z,100442.44
2023-04-20T09:10:02.516Z,100458.94
2023-04-20T09:12:43.675Z,100457.81
2023-04-20T09:15:12.814Z,100456.81
2023-04-20T09:17:43.359Z,100464.34
2023-04-20T09:20:12.436Z,100474.94
2023-04-20T09:22:42.425Z,100477.25
2023-04-20T09:25:19.155Z,100479.38
2023-04-20T09:28:03.276Z,100473.75
2023-04-20T09:30:40.418Z,100476.28
2023-04-20T09:33:12.086Z,100482.97
2023-04-20T09:35:42.729Z,100482.97
2023-04-20T09:38:15.958Z,100487.19
2023-04-20T09:40:44.499Z,100483.59
2023-04-20T09:43:20.789Z,100474.25
2023-04-20T09:45:51.710Z,100474.69
2023-04-20T09:48:22.688Z,100479.16
2023-04-20T09:50:52.039Z,100476.63
2023-04-20T09:53:22.459Z,100476.34
2023-04-20T09:55:52.825Z,100474.88
2023-04-20T09:58:22.528Z,100481.09
2023-04-20T10:00:52.467Z,100488.13
2023-04-20T10:03:22.832Z,100488.63
2023-04-20T10:05:56.815Z,100496.03
2023-04-20T10:08:31.326Z,100505.97
2023-04-20T10:11:02.067Z,100510.53
2023-04-20T10:13:36.249Z,100513.03
2023-04-20T10:16:06.862Z,100509.03
2023-04-20T10:18:38.236Z,100524.75
2023-04-20T10:21:11.983Z,100531.22
2023-04-20T10:23:54.662Z,100539.19
2023-04-20T10:26:24.570Z,100529.28
2023-04-20T10:28:54.789Z,100532.31
2023-04-20T10:31:36.569Z,100538.72
2023-04-20T10:34:08.603Z,100540.41
2023-04-20T10:36:41.414Z,100545.06
2023-04-20T10:39:19.759Z,100553.31
2023-04-20T10:42:04.507Z,100553.78
2023-04-20T10:44:35.947Z,100548.41
2023-04-20T10:47:04.698Z,100547.00
2023-04-20T10:49:35.413Z,100543.41
2023-04-20T10:52:04.699Z,100551.34
2023-04-20T10:54:42.274Z,100553.19
2023-04-20T10:57:17.917Z,100563.19
2023-04-20T10:59:47.891Z,100563.00
2023-04-20T11:02:17.004Z,100562.78
2023-04-20T11:04:48.149Z,100569.44
2023-04-20T11:07:18.423Z,100554.72
2023-04-20T11:09:54.805Z,100568.69
2023-04-20T11:12:23.749Z,100577.56
2023-04-20T11:14:56.198Z,100571.31
2023-04-20T11:17:36.487Z,100572.69
2023-04-20T11:20:17.129Z,100574.22
2023-04-20T11:23:00.511Z,100572.19
2023-04-20T11:25:31.405Z,100571.16
2023-04-20T11:28:10.510Z,100574.16
2023-04-20T11:30:42.664Z,100566.28
2023-04-20T11:33:12.800Z,100565.91
2023-04-20T11:35:44.426Z,100571.72
2023-04-20T11:38:15.679Z,100582.47
2023-04-20T11:40:47.191Z,100583.94
2023-04-20T11:43:19.852Z,100582.25
2023-04-20T11:45:50.397Z,100593.81
2023-04-20T11:48:20.375Z,100600.78
2023-04-20T11:50:50.377Z,100608.75
2023-04-20T11:53:19.510Z,100603.56
2023-04-20T11:55:50.557Z,100596.00
2023-04-20T11:58:20.857Z,100605.31
2023-04-20T12:00:50.564Z,100608.53
2023-04-20T12:03:20.000Z,100601.31
2023-04-20T12:05:51.544Z,100598.88
2023-04-20T12:08:21.096Z,100615.53
2023-04-20T12:10:50.682Z,100615.13
2023-04-20T12:13:20.030Z,100611.66
2023-04-20T12:15:49.121Z,100613.53
2023-04-20T12:18:19.410Z,100619.34
2023-04-20T12:20:51.719Z,100618.09
2023-04-20T12:23:21.211Z,100612.72
2023-04-20T12:25:51.515Z,100612.06
2023-04-20T12:28:20.397Z,100613.00
2023-04-20T12:30:50.690Z,100614.59
2023-04-20T12:33:20.407Z,100615.19
2023-04-20T12:35:50.473Z,100607.38
2023-04-20T12:38:20.690Z,100614.69
2023-04-20T12:40:51.124Z,100615.78
2023-04-20T12:43:20.560Z,100619.81
2023-04-20T12:45:52.798Z,100623.47
2023-04-20T12:48:22.977Z,100622.13
2023-04-20T12:50:52.604Z,100628.63
2023-04-20T12:53:23.048Z,100637.06
2023-04-20T12:56:00.263Z,100634.47
2023-04-20T12:58:32.661Z,100639.09
2023-04-20T13:01:02.826Z,100645.22
2023-04-20T13:03:33.540Z,100634.44
2023-04-20T13:06:03.168Z,100646.72
2023-04-20T13:08:32.643Z,100643.66
2023-04-20T13:11:02.498Z,100654.75
2023-04-20T13:13:32.693Z,100650.41
2023-04-20T13:16:02.363Z,100658.91
2023-04-20T13:18:32.544Z,100667.84
2023-04-20T13:21:07.209Z,100661.09
2023-04-20T13:23:39.609Z,100666.28
2023-04-20T13:26:11.326Z,100669.03
2023-04-20T13:28:40.885Z,100674.72
2023-04-20T13:31:11.828Z,100675.00
2023-04-20T13:33:42.090Z,100673.66
2023-04-20T13:36:11.012Z,100672.00
2023-04-20T13:38:40.980Z,100664.13
2023-04-20T13:41:12.626Z,100664.97
2023-04-20T13:43:43.899Z,100671.03
2023-04-20T13:46:13.119Z,100671.75
2023-04-20T13:48:42.758Z,100674.53
2023-04-20T13:51:12.223Z,100664.72
2023-04-20T13:53:44.249Z,100661.50
2023-04-20T13:56:17.105Z,100660.75
2023-04-20T13:58:48.574Z,100665.22
2023-04-20T14:01:22.657Z,100665.25
2023-04-20T14:03:56.075Z,100671.88
2023-04-20T14:06:27.529Z,100674.81
2023-04-20T14:08:58.273Z,100681.31
2023-04-20T14:11:30.561Z,100669.28
2023-04-20T14:14:32.239Z,100667.38
2023-04-20T14:17:04.478Z,100676.06
2023-04-20T14:19:57.148Z,100671.81
2023-04-20T14:22:36.215Z,100663.97
2023-04-20T14:25:07.380Z,100659.50
2023-04-20T14:27:41.283Z,100664.25
2023-04-20T14:30:13.457Z,100661.81
2023-04-20T14:33:00.039Z,100660.44
2023-04-20T14:35:32.369Z,100652.25
2023-04-20T14:38:02.610Z,100650.28
2023-04-20T14:40:32.832Z,100656.03
2023-04-20T14:43:04.978Z,100653.25
2023-04-20T14:45:37.855Z,100659.09
2023-04-20T14:48:10.477Z,100655.91
2023-04-20T14:50:43.619Z,100655.75
2023-04-20T14:53:12.932Z,100648.75
2023-04-20T14:55:47.208Z,100654.00
2023-04-20T14:58:26.076Z,100646.25
2023-04-20T15:01:02.306Z,100641.38
2023-04-20T15:03:33.353Z,100652.16
2023-04-20T15:06:04.878Z,100637.97
2023-04-20T15:08:35.877Z,100638.56
2023-04-20T15:11:09.308Z,100642.69
2023-04-20T15:13:45.362Z,100637.19
2023-04-20T15:16:20.014Z,100624.72
2023-04-20T15:19:02.705Z,100627.03
2023-04-20T15:21:43.405Z,100624.09
2023-04-20T15:24:15.433Z,100622.63
2023-04-20T15:26:45.073Z,100618.53
2023-04-20T15:29:16.215Z,100609.19
2023-04-20T15:31:50.823Z,100604.50
2023-04-20T15:34:20.208Z,100602.00
2023-04-20T15:36:53.835Z,100597.81
2023-04-20T15:39:26.803Z,100598.16
2023-04-20T15:41:56.767Z,100590.22
2023-04-20T15:44:31.294Z,100590.50
2023-04-20T15:47:02.925Z,100575.81
2023-04-20T15:49:32.604Z,100571.38
2023-04-20T15:52:06.734Z,100567.50
2023-04-20T15:54:39.174Z,100569.09
2023-04-20T15:57:12.336Z,100569.59
2023-04-20T15:59:42.526Z,100564.19
2023-04-20T16:02:12.305Z,100555.81
2023-04-20T16:04:43.650Z,100551.38
2023-04-20T16:07:15.935Z,100557.53
2023-04-20T16:09:47.294Z,100544.59
2023-04-20T16:12:18.533Z,100544.53
2023-04-20T16:14:49.470Z,100534.53
2023-04-20T16:17:20.955Z,100538.59
2023-04-20T16:19:55.492Z,100535.03
2023-04-20T16:22:27.403Z,100529.75
2023-04-20T16:25:01.607Z,100526.34
2023-04-20T16:27:32.809Z,100523.03
2023-04-20T16:30:10.909Z,100526.03
2023-04-20T16:32:41.752Z,100515.56
2023-04-20T16:35:12.699Z,100516.06
2023-04-20T16:37:47.459Z,100518.72
2023-04-20T16:40:17.246Z,100509.53
2023-04-20T16:42:53.270Z,100514.44
2023-04-20T16:45:27.801Z,100511.91
2023-04-20T16:48:12.649Z,100508.75
2023-04-20T16:51:20.916Z,100500.69
2023-04-20T16:54:08.021Z,100501.06
2023-04-20T16:56:41.279Z,100494.41
2023-04-20T16:59:14.641Z,100496.06
2023-04-20T17:01:49.074Z,100484.03
2023-04-20T17:04:21.020Z,100476.78
2023-04-20T17:06:53.164Z,100470.03
2023-04-20T17:09:27.515Z,100467.31
2023-04-20T17:12:07.865Z,100467.91
2023-04-20T17:14:39.524Z,100457.31
2023-04-20T17:17:09.268Z,100465.72
2023-04-20T17:19:42.696Z,100465.91
2023-04-20T17:22:12.571Z,100461.00
2023-04-20T17:24:44.119Z,100466.03
2023-04-20T17:27:17.151Z,100455.88
2023-04-20T17:29:51.591Z,100452.88
2023-04-20T17:32:21.547Z,100445.09
2023-04-20T17:34:54.997Z,100444.66
2023-04-20T17:37:27.432Z,100436.94
2023-04-20T17:40:03.503Z,100430.34
2023-04-20T17:42:37.179Z,100426.44
2023-04-20T17:45:09.374Z,100428.97
2023-04-20T17:47:43.934Z,100420.22
2023-04-20T17:50:17.043Z,100415.47
2023-04-20T17:52:51.410Z,100410.56
2023-04-20T17:56:15.908Z,100411.59
2023-04-20T18:00:39.964Z,100410.19
2023-04-20T18:03:27.811Z,100405.38
2023-04-20T18:06:08.955Z,100394.50
2023-04-20T18:08:51.813Z,100407.00
2023-04-20T18:16:05.913Z,100398.19
2023-04-20T18:19:25.582Z,100399.97
2023-04-20T18:22:52.350Z,100396.31
2023-04-20T18:29:48.661Z,100400.34
2023-04-20T18:34:01.905Z,100388.19
2023-04-20T18:37:59.241Z,100384.75
2023-04-20T18:45:19.283Z,100368.00
2023-04-20T18:47:49.345Z,100367.84
2023-04-20T18:50:21.131Z,100354.66
2023-04-20T18:57:36.139Z,100348.09
2023-04-20T19:00:09.083Z,100347.19
2023-04-20T19:02:39.372Z,100343.53
2023-04-20T19:05:52.955Z,100354.53
2023-04-20T19:08:34.929Z,100347.63
2023-04-20T19:11:04.720Z,100335.41
2023-04-20T19:13:34.829Z,100328.19
2023-04-20T19:16:06.970Z,100335.03
2023-04-20T19:18:36.923Z,100323.94
2023-04-20T19:21:08.471Z,100326.56
2023-04-20T19:23:38.057Z,100318.88
2023-04-20T19:26:08.969Z,100319.06
2023-04-20T19:28:41.173Z,100311.97
2023-04-20T19:31:16.722Z,100316.56
2023-04-20T19:33:47.039Z,100315.47
2023-04-20T19:36:21.330Z,100309.22
2023-04-20T19:38:52.386Z,100315.38
2023-04-20T19:41:20.851Z,100312.34
2023-04-20T19:43:51.930Z,100308.34
2023-04-20T19:46:23.537Z,100301.03
2023-04-20T19:48:52.589Z,100295.09
2023-04-20T19:51:31.517Z,100288.56
2023-04-20T19:54:05.336Z,100283.94
2023-04-20T19:56:36.719Z,100282.88
2023-04-20T19:59:17.786Z,100273.00
2023-04-20T20:01:51.012Z,100267.94
2023-04-20T20:04:21.578Z,100271.28
2023-04-20T20:07:36.640Z,100270.59
2023-04-20T20:10:09.187Z,100264.63
2023-04-20T20:12:39.832Z,100263.41
2023-04-20T20:15:10.797Z,100263.78
2023-04-20T20:17:41.281Z,100256.00
2023-04-20T20:20:19.372Z,100258.81
2023-04-20T20:22:51.536Z,100253.53
2023-04-20T20:25:21.486Z,100258.44
2023-04-20T20:27:53.529Z,100254.66
2023-04-20T20:30:25.560Z,100251.31
2023-04-20T20:32:56.436Z,100250.56
2023-04-20T20:35:38.888Z,100252.78
2023-04-20T20:38:13.014Z,100252.78
2023-04-20T20:40:44.394Z,100250.13
2023-04-20T20:43:16.250Z,100244.16
2023-04-20T20:45:45.624Z,100246.78
2023-04-20T20:48:16.765Z,100244.47
2023-04-20T20:51:23.654Z,100237.97
2023-04-20T20:53:53.612Z,100237.41
2023-04-20T20:56:24.383Z,100232.28
2023-04-20T20:59:04.907Z,100238.53
2023-04-20T21:01:56.758Z,100233.22
2023-04-20T21:04:40.793Z,100236.34
2023-04-20T21:07:11.466Z,100232.84
2023-04-20T21:09:48.331Z,100226.88
2023-04-20T21:12:19.333Z,100225.31
2023-04-20T21:14:52.257Z,100223.03
2023-04-20T21:17:34.329Z,100222.22
2023-04-20T21:20:15.083Z,100219.03
2023-04-20T21:22:44.973Z,100217.53
2023-04-20T21:25:15.971Z,100220.03
2023-04-20T21:27:46.276Z,100219.09
2023-04-20T21:30:19.479Z,100221.03
2023-04-20T21:32:49.795Z,100221.09
2023-04-20T21:38:25.371Z,100207.78
2023-04-20T21:41:13.767Z,100208.75
2023-04-20T21:43:44.922Z,100204.38
2023-04-20T21:46:19.456Z,100201.13
2023-04-20T21:49:06.084Z,100212.00
2023-04-20T21:51:36.971Z,100207.13
2023-04-20T21:54:10.810Z,100203.16
2023-04-20T21:56:43.394Z,100208.84
2023-04-20T21:59:15.087Z,100212.34
2023-04-20T22:01:45.134Z,100220.13
2023-04-20T22:04:25.327Z,100210.38
2023-04-20T22:06:57.022Z,100214.41
2023-04-20T22:09:30.405Z,100216.09
2023-04-20T22:12:04.196Z,100214.28
2023-04-20T22:14:37.436Z,100216.81
2023-04-20T22:17:13.837Z,100215.16
2023-04-20T22:19:45.098Z,100217.03
2023-04-20T22:22:17.415Z,100208.06
2023-04-20T22:24:49.266Z,100219.81
2023-04-20T22:27:25.745Z,100221.25
2023-04-20T22:30:01.522Z,100217.25
2023-04-20T22:32:37.608Z,100214.72
2023-04-20T22:35:15.920Z,100212.22
2023-04-20T22:37:47.709Z,100207.19
2023-04-20T22:40:16.830Z,100216.25
2023-04-20T22:42:49.018Z,100211.63
2023-04-20T22:45:21.387Z,100200.72
2023-04-20T22:47:52.404Z,100210.94
2023-04-20T22:50:21.444Z,100212.88
2023-04-20T22:52:52.949Z,100207.19
2023-04-20T22:55:24.913Z,100204.84
2023-04-20T22:57:55.018Z,100201.22
2023-04-20T23:00:24.435Z,100203.94
2023-04-20T23:02:53.203Z,100200.38
2023-04-20T23:05:27.244Z,100205.03
2023-04-20T23:08:04.430Z,100201.00
2023-04-20T23:10:33.981Z,100205.63
2023-04-20T23:13:05.801Z,100202.31
2023-04-20T23:15:36.854Z,100209.75
2023-04-20T23:18:06.999Z,100205.88
2023-04-20T23:20:38.961Z,100214.59
2023-04-20T23:23:12.450Z,100201.56
2023-04-20T23:25:41.344Z,100209.13
2023-04-20T23:28:15.988Z,100210.53
2023-04-20T23:30:45.477Z,100216.44
2023-04-20T23:33:16.023Z,100214.97
2023-04-20T23:35:44.942Z,100214.13
2023-04-20T23:38:17.229Z,100211.59
2023-04-20T23:40:47.031Z,100217.97
2023-04-20T23:43:16.463Z,100223.44
2023-04-20T23:45:47.118Z,100226.09
2023-04-20T23:48:16.745Z,100217.88
2023-04-20T23:50:50.939Z,100219.00
2023-04-20T23:53:22.936Z,100222.00
2023-04-20T23:55:57.614Z,100224.09
2023-04-20T23:58:32.753Z,100226.81
